Time;durP1;ratioP1;P1;durP2;ratioP2;P2;SDS_P1;SDS_P2;PMS_P1;PMS_P2;Temp;Humidity;BMP_temperature;BMP_pressure;BME280_temperature;BME280_humidity;BME280_pressure;Samples;Min_cycle;Max_cycle;Signal;HPM_P1;HPM_P2
2021/03/13 00:01:00;;;;;;;38.57;19.10;;;;;;;2.60;75.54;95363.22;1783774;80;21149;-63
2021/03/13 00:03:28;;;;;;;34.13;16.67;;;;;;;2.68;76.03;95368.92;1783756;80;21145;-63
2021/03/13 00:05:55;;;;;;;20.77;11.30;;;;;;;2.76;76.03;95368.11;1783805;80;21181;-63
2021/03/13 00:08:23;;;;;;;18.27;9.43;;;;;;;2.74;75.86;95366.35;1783569;80;21271;-63
2021/03/13 00:10:51;;;;;;;26.70;14.30;;;;;;;2.69;76.23;95369.35;1783641;80;21134;-63
2021/03/13 00:13:19;;;;;;;25.17;12.87;;;;;;;2.71;76.79;95363.73;1784089;80;21138;-63
2021/03/13 00:15:48;;;;;;;18.00;9.80;;;;;;;2.78;76.27;95368.13;1783539;80;21267;-63
2021/03/13 00:18:16;;;;;;;30.23;14.67;;;;;;;2.90;75.92;95369.53;1783513;80;21299;-63
2021/03/13 00:20:44;;;;;;;80.97;36.83;;;;;;;2.95;75.43;95370.88;1783935;80;21105;-63
2021/03/13 00:23:13;;;;;;;68.33;29.87;;;;;;;2.91;74.98;95378.22;1783565;80;21726;-63
2021/03/13 00:25:41;;;;;;;76.47;31.63;;;;;;;2.85;74.72;95376.45;1783634;80;21593;-63
2021/03/13 00:28:10;;;;;;;76.77;34.17;;;;;;;2.78;75.59;95385.94;1783675;80;21582;-63
2021/03/13 00:30:43;;;;;;;49.77;23.57;;;;;;;2.82;75.04;95379.00;1783770;80;21284;-63
2021/03/13 00:33:18;;;;;;;40.95;18.32;;;;;;;2.86;74.55;95377.31;1783189;80;21140;-63
2021/03/13 00:35:50;;;;;;;39.87;17.60;;;;;;;2.81;74.80;95371.62;1783541;80;21094;-63
2021/03/13 00:38:18;;;;;;;50.40;23.13;;;;;;;2.64;75.64;95374.52;1783868;80;21144;-63
2021/03/13 00:40:48;;;;;;;42.57;18.80;;;;;;;2.63;75.02;95375.83;1783755;80;21150;-63
2021/03/13 00:43:17;;;;;;;44.27;18.93;;;;;;;2.62;75.14;95383.18;1783749;80;21121;-63
2021/03/13 00:45:47;;;;;;;48.27;22.93;;;;;;;2.56;75.00;95388.78;1783606;80;21679;-63
2021/03/13 00:48:15;;;;;;;39.23;17.17;;;;;;;2.52;75.33;95386.12;1783736;80;21153;-63
2021/03/13 00:50:46;;;;;;;32.53;14.70;;;;;;;2.45;76.35;95386.96;1783865;80;21298;-63
2021/03/13 00:53:15;;;;;;;41.30;18.07;;;;;;;2.51;75.97;95383.96;1783844;80;21140;-63
2021/03/13 00:55:44;;;;;;;40.20;20.87;;;;;;;2.52;75.95;95377.91;1783673;80;21304;-63
2021/03/13 00:58:13;;;;;;;37.30;17.33;;;;;;;2.56;75.53;95384.01;1782859;80;21137;-63
2021/03/13 01:00:44;;;;;;;34.13;15.67;;;;;;;2.59;76.76;95387.50;1781823;80;21540;-63
2021/03/13 01:03:13;;;;;;;42.77;18.67;;;;;;;2.52;76.27;95384.42;1783835;80;21181;-63
2021/03/13 01:05:42;;;;;;;40.87;20.93;;;;;;;2.43;76.93;95373.05;1783597;80;21534;-63
2021/03/13 01:08:10;;;;;;;49.53;23.20;;;;;;;2.45;76.82;95381.31;1783828;80;21148;-63
2021/03/13 01:10:40;;;;;;;42.43;21.13;;;;;;;2.47;77.03;95376.10;1780565;80;21168;-63
2021/03/13 01:13:10;;;;;;;44.60;21.90;;;;;;;2.52;76.82;95384.42;1783756;80;21267;-63
2021/03/13 01:15:39;;;;;;;58.47;29.00;;;;;;;2.55;77.02;95381.84;1783967;80;21149;-63
2021/03/13 01:18:08;;;;;;;63.43;30.53;;;;;;;2.56;76.97;95365.34;1783519;80;21706;-63
2021/03/13 01:20:36;;;;;;;79.33;37.53;;;;;;;2.58;76.71;95354.51;1783650;80;21141;-63
2021/03/13 01:23:04;;;;;;;65.97;30.50;;;;;;;2.59;76.93;95357.98;1783724;80;21264;-63
2021/03/13 01:25:33;;;;;;;52.37;26.37;;;;;;;2.68;76.56;95360.67;1783642;80;21558;-63
2021/03/13 01:28:01;;;;;;;35.77;17.07;;;;;;;2.77;76.10;95376.80;1783812;80;21560;-63
2021/03/13 01:30:29;;;;;;;37.77;17.87;;;;;;;2.82;75.88;95365.97;1784008;80;21136;-63
2021/03/13 01:32:58;;;;;;;34.57;18.53;;;;;;;2.92;75.78;95356.49;1783830;80;21153;-63
2021/03/13 01:35:26;;;;;;;27.27;14.70;;;;;;;3.00;75.64;95353.09;1783709;80;21584;-63
2021/03/13 01:37:54;;;;;;;23.93;12.03;;;;;;;3.12;75.70;95353.58;1783663;80;21260;-63
2021/03/13 01:40:22;;;;;;;19.67;9.23;;;;;;;3.06;75.89;95358.77;1783695;80;21141;-63
2021/03/13 01:42:51;;;;;;;20.53;10.70;;;;;;;2.94;75.93;95354.34;1783847;80;21164;-63
2021/03/13 01:45:24;;;;;;;24.47;12.43;;;;;;;2.81;76.50;95354.69;1783426;80;21125;-63
2021/03/13 01:47:55;;;;;;;17.23;9.10;;;;;;;2.82;76.63;95351.64;1783452;80;21276;-63
2021/03/13 01:50:24;;;;;;;17.93;9.87;;;;;;;2.75;77.41;95361.61;1783969;80;21125;-63
2021/03/13 01:52:53;;;;;;;15.33;7.67;;;;;;;2.70;76.97;95354.19;1783772;80;21600;-63
2021/03/13 01:55:22;;;;;;;15.60;8.97;;;;;;;2.67;76.54;95342.41;1783728;80;21156;-63
2021/03/13 01:57:51;;;;;;;19.53;9.43;;;;;;;2.57;77.13;95337.16;1783287;80;21275;-63
2021/03/13 02:00:24;;;;;;;21.47;11.67;;;;;;;2.61;76.86;95332.83;1783669;80;21287;-63
2021/03/13 02:02:53;;;;;;;33.17;17.27;;;;;;;2.56;78.21;95321.06;1783654;80;21149;-63
2021/03/13 02:05:28;;;;;;;40.67;21.90;;;;;;;2.59;78.05;95325.42;1784072;80;21124;-63
2021/03/13 02:08:30;;;;;;;12.47;7.42;;;;;;;2.64;77.67;95309.40;1755244;80;21172;-63
2021/03/13 02:11:38;;;;;;;10.27;6.00;;;;;;;2.62;78.04;95303.73;1785287;80;21129;-65
2021/03/13 02:14:18;;;;;;;13.23;6.03;;;;;;;2.47;78.24;95290.17;1760709;80;21117;-65
2021/03/13 02:17:02;;;;;;;31.07;14.20;;;;;;;2.38;78.96;95271.02;1786496;80;21148;-65
2021/03/13 02:19:55;;;;;;;35.20;16.48;;;;;;;2.32;79.45;95261.88;1786893;80;21149;-65
2021/03/13 02:22:25;;;;;;;34.78;18.75;;;;;;;2.38;79.60;95255.39;1787026;80;21532;-63
2021/03/13 02:25:11;;;;;;;26.33;13.00;;;;;;;2.45;79.08;95247.20;1786898;80;21575;-63
2021/03/13 02:28:07;;;;;;;23.70;12.20;;;;;;;2.63;78.61;95265.13;1780308;79;22580;-63
2021/03/13 02:30:38;;;;;;;20.17;10.10;;;;;;;2.69;78.29;95266.45;1754175;82;21138;-65
2021/03/13 02:33:22;;;;;;;18.93;10.43;;;;;;;2.77;78.06;95273.48;1753585;82;21156;-65
2021/03/13 02:35:59;;;;;;;16.20;8.80;;;;;;;2.86;77.64;95274.39;1753098;82;21125;-65
2021/03/13 02:38:35;;;;;;;12.20;7.55;;;;;;;2.94;77.35;95276.16;1754441;82;21141;-65
2021/03/13 02:41:09;;;;;;;13.90;7.93;;;;;;;3.01;77.31;95284.89;1751216;82;21126;-65
2021/03/13 02:43:42;;;;;;;12.00;7.10;;;;;;;3.09;77.08;95297.97;1754143;81;21153;-63
2021/03/13 02:46:12;;;;;;;9.90;5.40;;;;;;;3.13;76.92;95298.44;1754450;81;21121;-63
2021/03/13 02:48:41;;;;;;;10.20;5.80;;;;;;;3.14;76.67;95297.12;1753964;81;21161;-63
2021/03/13 02:51:09;;;;;;;9.30;5.10;;;;;;;3.10;76.57;95287.97;1754236;81;21144;-63
2021/03/13 02:53:37;;;;;;;8.10;5.03;;;;;;;3.11;76.59;95293.20;1754025;82;21575;-63
2021/03/13 02:56:08;;;;;;;9.37;5.13;;;;;;;3.02;76.92;95291.84;1754094;81;21556;-63
2021/03/13 02:58:39;;;;;;;6.77;4.33;;;;;;;2.92;76.92;95293.52;1754315;81;21568;-63
2021/03/13 03:01:08;;;;;;;6.53;4.00;;;;;;;2.94;76.84;95298.75;1754294;82;21144;-63
2021/03/13 03:03:38;;;;;;;7.27;4.10;;;;;;;2.86;77.14;95294.79;1753761;81;21117;-63
2021/03/13 03:06:10;;;;;;;7.63;4.43;;;;;;;2.76;77.13;95292.55;1751637;82;21129;-63
2021/03/13 03:08:42;;;;;;;6.33;3.23;;;;;;;2.77;77.04;95290.81;1753796;82;21121;-63
2021/03/13 03:11:11;;;;;;;6.23;3.80;;;;;;;2.79;76.82;95291.70;1753981;82;21137;-63
2021/03/13 03:13:40;;;;;;;5.80;3.57;;;;;;;2.65;76.94;95295.53;1753955;81;21113;-63
2021/03/13 03:16:09;;;;;;;8.20;5.80;;;;;;;2.57;77.35;95300.69;1724878;82;21607;-63
2021/03/13 03:18:40;;;;;;;8.87;4.80;;;;;;;2.62;77.50;95311.55;1753755;82;21598;-63
2021/03/13 03:21:09;;;;;;;6.77;4.23;;;;;;;2.59;78.08;95318.47;1699504;82;21619;-63
2021/03/13 03:23:39;;;;;;;4.43;2.83;;;;;;;2.50;77.82;95317.12;1753986;82;21160;-63
2021/03/13 03:26:07;;;;;;;6.00;3.57;;;;;;;2.50;78.04;95321.47;1751352;82;21153;-63
2021/03/13 03:28:35;;;;;;;5.27;2.80;;;;;;;2.52;77.23;95326.23;1740731;81;21513;-63
2021/03/13 03:31:06;;;;;;;3.87;2.80;;;;;;;2.50;77.46;95317.56;1740003;82;21575;-63
2021/03/13 03:33:34;;;;;;;5.00;3.30;;;;;;;2.52;77.65;95323.22;1740779;82;21118;-63
2021/03/13 03:36:05;;;;;;;4.53;2.53;;;;;;;2.50;78.08;95324.94;1740654;81;21157;-63
2021/03/13 03:38:35;;;;;;;4.93;2.57;;;;;;;2.47;77.83;95329.23;1740585;81;21157;-63
2021/03/13 03:41:03;;;;;;;5.30;2.53;;;;;;;2.39;78.51;95336.97;1740469;81;21134;-63
2021/03/13 03:43:44;;;;;;;3.07;2.13;;;;;;;2.35;78.56;95350.84;1740272;82;21584;-63
2021/03/13 03:46:15;;;;;;;3.70;2.58;;;;;;;2.28;78.27;95351.64;1740375;82;21166;-63
2021/03/13 03:48:45;;;;;;;3.63;2.10;;;;;;;2.30;78.13;95361.22;1740287;82;21141;-63
2021/03/13 03:51:15;;;;;;;2.93;1.90;;;;;;;2.26;78.54;95360.73;1740134;82;21275;-63
2021/03/13 03:53:50;;;;;;;4.67;3.25;;;;;;;2.29;78.27;95369.00;1740380;82;21592;-63
2021/03/13 03:56:22;;;;;;;6.20;3.33;;;;;;;2.25;78.21;95369.84;1740270;82;21288;-63
2021/03/13 03:58:52;;;;;;;3.47;1.97;;;;;;;2.23;78.50;95372.42;1740128;82;21596;-63
2021/03/13 04:01:23;;;;;;;2.40;1.47;;;;;;;2.21;78.33;95370.66;1740154;82;21319;-63
2021/03/13 04:03:58;;;;;;;3.67;2.10;;;;;;;2.23;78.50;95382.83;1740185;82;21245;-63
2021/03/13 04:06:27;;;;;;;2.77;1.60;;;;;;;2.30;78.47;95370.33;1740108;82;21312;-63
2021/03/13 04:08:57;;;;;;;3.03;1.87;;;;;;;2.35;78.43;95376.45;1740468;82;21129;-63
2021/03/13 04:11:27;;;;;;;3.60;1.83;;;;;;;2.37;78.13;95376.47;1740174;82;21279;-63
2021/03/13 04:13:58;;;;;;;2.27;1.73;;;;;;;2.33;78.27;95374.25;1740072;82;21158;-63
2021/03/13 04:16:29;;;;;;;2.10;1.53;;;;;;;2.30;78.07;95375.97;1740264;82;21692;-63
2021/03/13 04:19:01;;;;;;;2.83;1.60;;;;;;;2.35;78.27;95383.39;1740047;82;21284;-63
2021/03/13 04:21:31;;;;;;;8.20;5.00;;;;;;;2.37;78.26;95386.89;1740209;82;21269;-63
2021/03/13 04:24:00;;;;;;;4.57;1.90;;;;;;;2.33;78.22;95389.01;1740135;82;21153;-63
2021/03/13 04:26:30;;;;;;;66.60;20.67;;;;;;;2.28;78.11;95394.59;1741979;81;21690;-63
2021/03/13 04:28:58;;;;;;;11.93;5.67;;;;;;;2.19;78.59;95396.66;1748425;82;21200;-63
2021/03/13 04:31:32;;;;;;;6.13;2.33;;;;;;;2.14;78.70;95403.55;1748319;82;21114;-63
2021/03/13 04:34:02;;;;;;;12.07;5.27;;;;;;;2.10;78.80;95407.86;1748333;82;21098;-63
2021/03/13 04:36:36;;;;;;;5.13;2.70;;;;;;;2.06;78.95;95406.07;1719357;82;21580;-63
2021/03/13 04:39:05;;;;;;;13.50;7.80;;;;;;;2.03;78.69;95399.53;1748190;81;21149;-63
2021/03/13 04:41:33;;;;;;;8.43;5.30;;;;;;;1.94;79.73;95399.02;1748402;82;21536;-63
2021/03/13 04:44:03;;;;;;;50.67;23.37;;;;;;;1.91;79.80;95401.99;1719233;82;21098;-63
2021/03/13 04:46:37;;;;;;;19.10;10.30;;;;;;;1.94;79.75;95390.31;1748256;82;21179;-63
2021/03/13 04:49:07;;;;;;;8.37;4.47;;;;;;;2.05;80.11;95396.53;1748292;82;21556;-63
2021/03/13 04:51:35;;;;;;;4.80;2.53;;;;;;;2.05;80.08;95401.73;1748526;82;21138;-63
2021/03/13 04:54:05;;;;;;;23.20;11.27;;;;;;;2.05;80.20;95397.83;1748492;82;21114;-63
2021/03/13 04:56:32;;;;;;;5.47;4.07;;;;;;;2.05;80.42;95403.03;1748481;82;21145;-63
2021/03/13 04:59:00;;;;;;;21.40;11.47;;;;;;;2.08;80.25;95400.89;1748331;82;21186;-63
2021/03/13 05:01:27;;;;;;;21.40;11.13;;;;;;;2.05;80.04;95397.83;1748432;81;21627;-63
2021/03/13 05:03:57;;;;;;;19.03;11.00;;;;;;;2.00;80.63;95394.74;1748368;82;21150;-63
2021/03/13 05:06:25;;;;;;;29.30;14.27;;;;;;;2.09;80.23;95395.72;1748255;82;21182;-63
2021/03/13 05:08:52;;;;;;;31.30;17.57;;;;;;;2.12;80.03;95402.69;1748607;82;21295;-65
2021/03/13 05:11:20;;;;;;;36.20;19.07;;;;;;;2.13;79.59;95410.92;1748476;82;21520;-63
2021/03/13 05:13:47;;;;;;;40.97;22.10;;;;;;;2.15;79.44;95415.29;1748260;81;21420;-63
2021/03/13 05:16:15;;;;;;;29.23;16.80;;;;;;;2.24;79.14;95417.11;1748314;82;21618;-63
2021/03/13 05:18:43;;;;;;;8.83;5.87;;;;;;;2.30;78.97;95421.53;1748263;81;21568;-63
2021/03/13 05:21:13;;;;;;;14.47;8.17;;;;;;;2.33;79.30;95422.86;1748276;82;21166;-63
2021/03/13 05:23:41;;;;;;;7.00;4.07;;;;;;;2.34;78.88;95415.47;1748169;82;21145;-63
2021/03/13 05:26:09;;;;;;;13.53;8.63;;;;;;;2.40;79.50;95421.20;1748268;82;21129;-63
2021/03/13 05:28:37;;;;;;;34.17;20.13;;;;;;;2.40;79.82;95422.50;1748235;82;21134;-63
2021/03/13 05:31:05;;;;;;;37.50;19.97;;;;;;;2.48;79.47;95416.92;1748280;81;21579;-63
2021/03/13 05:33:32;;;;;;;5.17;2.83;;;;;;;2.59;79.08;95415.28;1748374;82;21129;-64
2021/03/13 05:36:01;;;;;;;6.63;3.80;;;;;;;2.58;79.00;95414.85;1748354;82;21182;-63
2021/03/13 05:38:28;;;;;;;20.80;13.67;;;;;;;2.57;78.80;95423.11;1748489;82;21133;-63
2021/03/13 05:40:57;;;;;;;13.20;6.47;;;;;;;2.62;78.70;95420.95;1748554;81;21145;-63
2021/03/13 05:43:25;;;;;;;13.40;8.83;;;;;;;2.68;78.99;95428.84;1748733;82;21160;-63
2021/03/13 05:45:55;;;;;;;23.70;15.50;;;;;;;2.70;78.77;95426.69;1748410;82;21153;-63
2021/03/13 05:48:25;;;;;;;20.70;12.73;;;;;;;2.78;79.08;95423.71;1748245;82;21161;-63
2021/03/13 05:50:55;;;;;;;46.70;25.80;;;;;;;2.98;78.85;95440.82;1748070;82;21553;-63
2021/03/13 05:53:25;;;;;;;55.40;29.83;;;;;;;3.10;78.14;95441.77;1747405;82;21137;-63
2021/03/13 05:55:54;;;;;;;38.33;20.53;;;;;;;3.13;77.43;95445.72;1748200;82;21154;-63
2021/03/13 05:58:23;;;;;;;51.90;26.37;;;;;;;3.04;77.31;95462.15;1748361;82;21141;-63
2021/03/13 06:00:51;;;;;;;51.63;28.50;;;;;;;2.91;77.48;95462.47;1748529;82;21136;-63
2021/03/13 06:03:19;;;;;;;62.73;32.47;;;;;;;2.84;77.67;95463.27;1748652;82;21106;-63
2021/03/13 06:05:47;;;;;;;143.97;60.53;;;;;;;2.79;78.60;95466.27;1748017;81;21136;-63
2021/03/13 06:08:17;;;;;;;140.63;59.93;;;;;;;2.76;78.65;95461.91;1748414;82;21146;-63
2021/03/13 06:10:45;;;;;;;86.33;45.07;;;;;;;2.76;78.46;95465.81;1748437;82;21146;-63
2021/03/13 06:13:14;;;;;;;29.70;17.20;;;;;;;2.84;78.04;95468.48;1748515;82;21129;-63
2021/03/13 06:15:46;;;;;;;67.60;32.97;;;;;;;2.85;78.41;95470.25;1748231;82;21146;-63
2021/03/13 06:18:13;;;;;;;99.80;50.00;;;;;;;2.85;78.73;95479.38;1748533;82;21137;-63
2021/03/13 06:20:41;;;;;;;110.43;55.27;;;;;;;2.91;78.66;95480.72;1748205;82;21599;-63
2021/03/13 06:23:13;;;;;;;108.70;55.63;;;;;;;3.02;78.33;95483.01;1748285;82;21603;-63
2021/03/13 06:25:44;;;;;;;91.70;45.97;;;;;;;3.13;78.02;95497.42;1748828;82;21252;-63
2021/03/13 06:28:19;;;;;;;95.67;47.13;;;;;;;3.15;78.35;95490.91;1729454;81;21117;-63
2021/03/13 06:30:51;;;;;;;83.43;40.30;;;;;;;3.19;78.09;95488.77;1761862;81;21271;-63
2021/03/13 06:33:32;;;;;;;82.27;40.43;;;;;;;3.21;77.81;95493.14;1762003;81;21274;-63
2021/03/13 06:36:04;;;;;;;79.27;37.37;;;;;;;3.27;77.50;95488.40;1761968;81;21120;-63
2021/03/13 06:38:36;;;;;;;90.90;48.63;;;;;;;3.26;77.24;95487.97;1761932;81;21248;-63
2021/03/13 06:41:22;;;;;;;88.87;46.40;;;;;;;3.28;77.12;95487.55;1761787;81;21268;-63
2021/03/13 06:43:52;;;;;;;57.73;31.40;;;;;;;3.33;76.88;95487.59;1762258;81;21133;-63
2021/03/13 06:46:22;;;;;;;29.77;14.27;;;;;;;3.39;76.57;95500.23;1762135;81;21164;-63
2021/03/13 06:48:55;;;;;;;24.40;12.70;;;;;;;3.51;76.10;95499.89;1761933;81;21283;-63
2021/03/13 06:51:33;;;;;;;26.30;13.70;;;;;;;3.65;75.54;95497.83;1734442;81;21098;-63
2021/03/13 06:54:17;;;;;;;25.70;14.60;;;;;;;3.76;75.48;95491.80;1761843;81;21267;-63
2021/03/13 06:56:57;;;;;;;18.55;11.22;;;;;;;3.84;74.62;95492.27;1762040;81;21715;-63
2021/03/13 06:59:36;;;;;;;18.03;8.47;;;;;;;3.88;74.36;95494.45;1761848;81;21701;-63
2021/03/13 07:02:09;;;;;;;16.30;8.57;;;;;;;3.94;74.75;95510.16;1761057;81;21160;-63
2021/03/13 07:04:42;;;;;;;9.30;6.23;;;;;;;4.06;74.48;95521.12;1761762;81;21251;-63
2021/03/13 07:07:14;;;;;;;10.48;6.17;;;;;;;4.17;74.17;95519.42;1761965;81;21287;-63
2021/03/13 07:09:50;;;;;;;10.33;6.50;;;;;;;4.24;73.86;95508.58;1759455;81;21114;-63
2021/03/13 07:12:29;;;;;;;11.03;6.40;;;;;;;4.30;73.85;95519.04;1761823;81;21110;-63
2021/03/13 07:15:18;;;;;;;10.57;5.63;;;;;;;4.36;73.39;95525.61;1762396;81;21125;-63
2021/03/13 07:17:53;;;;;;;12.60;6.70;;;;;;;4.46;73.09;95521.27;1762099;81;21571;-63
2021/03/13 07:20:24;;;;;;;13.80;7.67;;;;;;;4.54;72.81;95512.61;1761967;81;21243;-63
2021/03/13 07:22:55;;;;;;;13.83;7.60;;;;;;;4.74;72.99;95513.11;1762184;81;21125;-63
2021/03/13 07:25:25;;;;;;;10.77;6.40;;;;;;;4.90;72.38;95506.17;1762369;81;21133;-63
2021/03/13 07:28:00;;;;;;;15.73;7.53;;;;;;;4.96;71.50;95510.09;1752257;81;21560;-63
2021/03/13 07:30:29;;;;;;;16.03;9.43;;;;;;;5.05;71.82;95512.73;1740215;82;21691;-63
2021/03/13 07:33:05;;;;;;;14.63;7.97;;;;;;;5.25;71.99;95494.44;1740399;82;21568;-63
2021/03/13 07:35:38;;;;;;;15.50;8.57;;;;;;;5.43;70.38;95494.43;1739357;82;21146;-63
2021/03/13 07:38:10;;;;;;;14.10;9.17;;;;;;;5.59;69.80;95494.42;1740186;82;21719;-63
2021/03/13 07:40:45;;;;;;;18.57;8.77;;;;;;;5.69;68.99;95497.90;1740188;82;21534;-63
2021/03/13 07:43:15;;;;;;;6.73;4.33;;;;;;;5.85;69.31;95501.81;1719303;82;21131;-63
2021/03/13 07:45:47;;;;;;;7.17;3.90;;;;;;;6.06;68.96;95503.98;1740151;82;21118;-63
2021/03/13 07:48:16;;;;;;;8.03;4.20;;;;;;;6.21;69.01;95507.86;1740618;82;21146;-63
2021/03/13 07:50:49;;;;;;;6.37;3.83;;;;;;;6.25;66.78;95512.22;1740096;82;21553;-63
2021/03/13 07:53:18;;;;;;;3.73;2.20;;;;;;;6.31;67.78;95513.95;1740487;81;21279;-63
2021/03/13 07:55:52;;;;;;;2.90;1.83;;;;;;;6.37;66.53;95508.67;1740250;82;21736;-63
2021/03/13 07:58:22;;;;;;;2.93;1.17;;;;;;;6.46;65.96;95510.41;1740174;82;21154;-63
2021/03/13 08:00:50;;;;;;;2.13;1.57;;;;;;;6.57;61.54;95505.11;1719614;82;21154;-63
2021/03/13 08:03:37;;;;;;;3.33;2.00;;;;;;;6.79;62.89;95498.02;1740246;82;21308;-63
2021/03/13 08:06:14;;;;;;;5.00;1.30;;;;;;;7.09;58.26;95503.06;1740050;81;21727;-63
2021/03/13 08:08:46;;;;;;;2.40;1.40;;;;;;;7.37;55.30;95495.86;1740330;82;21126;-63
2021/03/13 08:11:20;;;;;;;1.97;1.50;;;;;;;7.42;56.44;95488.41;1740237;82;21712;-63
2021/03/13 08:13:56;;;;;;;2.93;1.67;;;;;;;7.62;57.04;95493.05;1740094;82;21280;-63
2021/03/13 08:16:39;;;;;;;2.67;1.60;;;;;;;7.79;54.65;95489.82;1740363;82;21138;-63
2021/03/13 08:19:28;;;;;;;3.07;1.40;;;;;;;7.68;52.21;95491.66;1740157;82;21731;-63
2021/03/13 08:22:17;;;;;;;4.40;1.70;;;;;;;7.85;53.06;95491.51;1740331;82;21122;-63
2021/03/13 08:24:53;;;;;;;4.57;1.80;;;;;;;8.11;54.04;95479.41;1731403;82;21103;-63
2021/03/13 08:27:38;;;;;;;7.33;1.97;;;;;;;8.38;53.50;95480.86;1740750;81;21145;-63
2021/03/13 08:30:24;;;;;;;4.40;2.23;;;;;;;8.53;53.03;95481.61;1748804;82;21138;-63
2021/03/13 08:33:09;;;;;;;3.83;2.43;;;;;;;8.72;50.19;95480.49;1748202;82;21572;-64
2021/03/13 08:35:46;;;;;;;2.90;1.80;;;;;;;8.85;50.76;95475.48;1747210;82;21154;-63
2021/03/13 08:38:17;;;;;;;2.33;1.87;;;;;;;8.97;50.87;95473.13;1748541;82;21145;-63
2021/03/13 08:40:52;;;;;;;2.10;1.67;;;;;;;9.16;49.40;95465.81;1748449;82;21122;-63
2021/03/13 08:43:36;;;;;;;5.73;2.10;;;;;;;9.23;50.94;95469.23;1748308;82;21122;-63
2021/03/13 08:46:07;;;;;;;4.27;2.53;;;;;;;9.48;49.06;95472.36;1748290;82;21177;-64
2021/03/13 08:48:59;;;;;;;3.60;1.70;;;;;;;9.70;46.13;95478.11;1744185;82;21130;-64
2021/03/13 08:51:28;;;;;;;2.20;1.20;;;;;;;9.48;44.64;95479.80;1748581;82;21130;-63
2021/03/13 08:53:56;;;;;;;4.13;2.63;;;;;;;9.76;45.00;95464.84;1748388;82;21571;-63
2021/03/13 08:56:43;;;;;;;1.90;1.07;;;;;;;10.08;45.18;95473.50;1748558;82;21126;-63
2021/03/13 08:59:17;;;;;;;25.17;13.77;;;;;;;10.35;43.54;95472.11;1748591;82;21125;-63
2021/03/13 09:02:06;;;;;;;10.20;6.00;;;;;;;10.34;43.85;95473.02;1748148;82;21580;-63
2021/03/13 09:04:36;;;;;;;8.33;4.53;;;;;;;10.15;45.48;95471.17;1743329;82;21149;-63
2021/03/13 09:07:07;;;;;;;4.57;3.30;;;;;;;9.80;45.25;95478.38;1719544;82;21130;-63
2021/03/13 09:09:38;;;;;;;9.70;6.07;;;;;;;9.37;45.80;95479.54;1748358;82;21094;-63
2021/03/13 09:12:13;;;;;;;5.23;3.40;;;;;;;9.06;46.59;95484.82;1748490;82;21134;-63
2021/03/13 09:14:45;;;;;;;5.67;2.27;;;;;;;8.90;47.86;95476.73;1748113;81;21142;-63
2021/03/13 09:17:16;;;;;;;4.47;1.80;;;;;;;8.69;48.47;95472.61;1748291;82;21141;-63
2021/03/13 09:19:47;;;;;;;4.83;2.87;;;;;;;8.60;49.38;95468.81;1719465;82;21133;-63
2021/03/13 09:22:21;;;;;;;3.67;2.60;;;;;;;8.48;49.16;95469.83;1748267;82;21133;-63
2021/03/13 09:24:56;;;;;;;2.58;1.75;;;;;;;8.53;49.46;95468.00;1748436;81;21158;-63
2021/03/13 09:27:30;;;;;;;2.83;1.80;;;;;;;8.48;49.04;95465.87;1748519;82;21162;-63
2021/03/13 09:29:59;;;;;;;3.27;1.30;;;;;;;8.49;48.99;95464.98;1748331;82;21094;-63
2021/03/13 09:32:28;;;;;;;2.60;1.60;;;;;;;8.50;48.62;95458.84;1748258;82;21145;-63
2021/03/13 09:34:56;;;;;;;2.93;1.50;;;;;;;8.55;48.63;95457.03;1748628;82;21161;-63
2021/03/13 09:37:29;;;;;;;2.97;1.77;;;;;;;8.64;48.47;95458.66;1747978;82;21106;-63
2021/03/13 09:40:19;;;;;;;2.17;1.70;;;;;;;8.63;47.39;95456.47;1748384;82;21130;-63
2021/03/13 09:42:49;;;;;;;1.53;1.20;;;;;;;9.09;49.16;95451.00;1748271;81;21592;-63
2021/03/13 09:45:23;;;;;;;2.53;1.40;;;;;;;9.75;44.88;95437.64;1748285;82;21169;-63
2021/03/13 09:48:00;;;;;;;3.30;1.70;;;;;;;10.27;43.72;95438.86;1748311;82;21587;-63
2021/03/13 09:50:35;;;;;;;3.03;2.60;;;;;;;10.47;45.17;95441.99;1748014;82;21153;-63
2021/03/13 09:53:10;;;;;;;4.73;1.57;;;;;;;10.45;42.96;95434.55;1748543;81;21122;-63
2021/03/13 09:55:38;;;;;;;4.87;1.77;;;;;;;10.28;42.88;95439.30;1748446;82;21592;-63
2021/03/13 09:58:06;;;;;;;1.33;1.23;;;;;;;10.17;43.40;95432.44;1748070;82;21133;-63
2021/03/13 10:00:41;;;;;;;2.33;1.30;;;;;;;10.13;43.89;95431.20;1748512;81;21132;-63
2021/03/13 10:03:13;;;;;;;1.67;1.20;;;;;;;10.08;43.57;95438.34;1748539;82;21145;-63
2021/03/13 10:05:41;;;;;;;1.70;1.43;;;;;;;9.91;43.71;95433.41;1748291;81;21137;-63
2021/03/13 10:08:14;;;;;;;2.40;1.50;;;;;;;9.90;44.07;95435.18;1748297;82;21147;-63
2021/03/13 10:10:44;;;;;;;;;;;;;;;10.16;43.28;95431.17;1750798;81;21554;-63
2021/03/13 10:13:16;;;;;;;2.93;1.90;;;;;;;10.44;42.79;95430.20;1748420;82;20404;-63
2021/03/13 10:15:45;;;;;;;3.13;2.07;;;;;;;10.54;42.48;95429.09;1748626;82;21154;-63
2021/03/13 10:18:16;;;;;;;3.83;2.40;;;;;;;10.53;42.66;95429.12;1748314;82;21157;-63
2021/03/13 10:20:49;;;;;;;4.00;3.43;;;;;;;10.36;42.15;95432.98;1748431;82;21177;-63
2021/03/13 10:23:32;;;;;;;4.33;2.65;;;;;;;10.17;42.82;95435.08;1748672;82;21133;-63
2021/03/13 10:26:04;;;;;;;3.47;2.47;;;;;;;10.04;42.55;95440.17;1748479;81;21572;-63
2021/03/13 10:28:37;;;;;;;3.33;2.07;;;;;;;10.03;41.93;95446.78;1750148;82;21177;-63
2021/03/13 10:31:10;;;;;;;6.17;3.87;;;;;;;10.09;41.17;95438.77;1754108;82;21125;-63
2021/03/13 10:33:44;;;;;;;3.70;2.05;;;;;;;10.05;38.89;95449.80;1754371;82;21121;-63
2021/03/13 10:36:15;;;;;;;3.00;2.07;;;;;;;9.80;38.87;95447.20;1754263;82;21141;-63
2021/03/13 10:38:46;;;;;;;4.57;2.27;;;;;;;9.68;39.80;95447.00;1753912;82;21141;-65
2021/03/13 10:41:23;;;;;;;4.70;2.70;;;;;;;9.69;40.21;95443.45;1754153;82;21132;-63
2021/03/13 10:43:52;;;;;;;3.63;2.37;;;;;;;9.71;41.55;95442.98;1754213;81;21516;-63
2021/03/13 10:46:26;;;;;;;3.93;1.70;;;;;;;9.76;41.68;95442.45;1754256;81;21152;-63
2021/03/13 10:48:59;;;;;;;5.17;2.80;;;;;;;10.02;41.46;95440.64;1752531;82;21136;-63
2021/03/13 10:51:35;;;;;;;;;;;;;;;10.07;41.55;95434.84;1756753;82;21574;-63
2021/03/13 10:54:05;;;;;;;6.83;3.57;;;;;;;10.15;41.76;95438.64;1754511;82;20225;-63
2021/03/13 10:56:44;;;;;;;8.07;4.23;;;;;;;10.34;40.35;95422.91;1754214;82;21109;-63
2021/03/13 10:59:12;;;;;;;10.63;6.10;;;;;;;10.93;40.36;95420.33;1754237;82;21555;-63
2021/03/13 11:01:46;;;;;;;7.77;4.80;;;;;;;11.65;38.49;95408.90;1754428;82;21287;-63
2021/03/13 11:04:14;;;;;;;5.60;2.83;;;;;;;12.32;36.92;95409.33;1726890;82;21252;-63
2021/03/13 11:06:41;;;;;;;4.40;1.90;;;;;;;13.02;36.58;95406.83;1754165;82;21584;-63
2021/03/13 11:09:12;;;;;;;1.63;1.30;;;;;;;13.16;34.97;95421.84;1754355;81;21135;-63
2021/03/13 11:11:40;;;;;;;2.93;1.80;;;;;;;12.30;34.11;95425.72;1754321;82;21137;-63
2021/03/13 11:14:09;;;;;;;6.53;2.63;;;;;;;11.60;34.99;95421.36;1754129;82;21198;-63
2021/03/13 11:16:37;;;;;;;2.53;1.90;;;;;;;11.58;36.93;95423.17;1727334;82;21141;-63
2021/03/13 11:19:06;;;;;;;3.50;1.30;;;;;;;12.42;36.47;95413.44;1754315;81;21571;-63
2021/03/13 11:21:35;;;;;;;2.23;2.03;;;;;;;13.17;33.23;95395.75;1754386;81;21264;-63
2021/03/13 11:24:05;;;;;;;5.27;2.33;;;;;;;13.43;33.01;95396.29;1754509;81;21121;-63
2021/03/13 11:26:33;;;;;;;4.67;2.20;;;;;;;13.33;33.56;95393.50;1754210;81;21161;-63
2021/03/13 11:29:01;;;;;;;4.10;1.60;;;;;;;13.70;32.79;95389.64;1754028;82;21162;-63
2021/03/13 11:31:28;;;;;;;3.17;1.20;;;;;;;14.26;32.77;95385.00;1754250;82;21172;-64
2021/03/13 11:33:56;;;;;;;3.27;1.82;;;;;;;14.54;30.85;95373.41;1754401;82;21156;-63
2021/03/13 11:36:24;;;;;;;2.30;1.70;;;;;;;14.88;30.92;95379.59;1753914;82;21623;-64
2021/03/13 11:38:52;;;;;;;2.20;1.70;;;;;;;14.90;29.84;95378.22;1754268;82;21145;-63
2021/03/13 11:41:20;;;;;;;1.98;1.65;;;;;;;14.90;30.90;95374.23;1754369;82;21145;-63
2021/03/13 11:43:47;;;;;;;3.45;2.30;;;;;;;15.05;31.35;95373.63;1754042;82;21120;-63
2021/03/13 11:46:15;;;;;;;1.57;1.40;;;;;;;15.18;30.48;95367.83;1754257;82;21133;-64
2021/03/13 11:48:44;;;;;;;1.87;1.70;;;;;;;15.52;30.72;95362.88;1754216;81;21106;-64
2021/03/13 11:51:12;;;;;;;2.50;1.37;;;;;;;16.24;28.68;95352.27;1754391;81;21271;-64
2021/03/13 11:53:40;;;;;;;2.95;1.77;;;;;;;16.73;26.77;95343.83;1754361;82;21587;-64
2021/03/13 11:56:09;;;;;;;3.22;2.37;;;;;;;16.72;27.19;95342.11;1753997;82;21148;-64